sensor_id;sensor_type;location;lat;lon;timestamp;P1;durP1;ratioP1;P2;durP2;ratioP2
41685;SDS011;27370;42.764;23.432;2023-11-21T00:00:00;45.50;;;26.80;;
41685;SDS011;27370;42.764;23.432;2023-11-21T00:02:26;48.58;;;26.10;;
41685;SDS011;27370;42.764;23.432;2023-11-21T00:04:53;47.33;;;26.17;;
41685;SDS011;27370;42.764;23.432;2023-11-21T00:07:19;48.53;;;25.13;;
41685;SDS011;27370;42.764;23.432;2023-11-21T00:09:46;40.92;;;23.27;;
41685;SDS011;27370;42.764;23.432;2023-11-21T00:12:12;39.38;;;21.85;;
41685;SDS011;27370;42.764;23.432;2023-11-21T00:14:39;43.55;;;22.65;;
41685;SDS011;27370;42.764;23.432;2023-11-21T00:17:04;40.03;;;24.52;;
41685;SDS011;27370;42.764;23.432;2023-11-21T00:19:31;39.03;;;23.90;;
41685;SDS011;27370;42.764;23.432;2023-11-21T00:21:58;39.70;;;24.20;;
41685;SDS011;27370;42.764;23.432;2023-11-21T00:24:24;37.83;;;22.58;;
41685;SDS011;27370;42.764;23.432;2023-11-21T00:26:50;33.38;;;20.75;;
41685;SDS011;27370;42.764;23.432;2023-11-21T00:29:17;26.75;;;16.52;;
41685;SDS011;27370;42.764;23.432;2023-11-21T00:31:43;25.67;;;16.38;;
41685;SDS011;27370;42.764;23.432;2023-11-21T00:34:13;30.83;;;18.92;;
41685;SDS011;27370;42.764;23.432;2023-11-21T00:36:39;30.55;;;19.75;;
41685;SDS011;27370;42.764;23.432;2023-11-21T00:39:05;41.97;;;29.20;;
41685;SDS011;27370;42.764;23.432;2023-11-21T00:41:31;50.15;;;32.95;;
41685;SDS011;27370;42.764;23.432;2023-11-21T00:43:57;58.47;;;40.90;;
41685;SDS011;27370;42.764;23.432;2023-11-21T00:46:24;57.90;;;41.70;;
41685;SDS011;27370;42.764;23.432;2023-11-21T00:48:52;53.08;;;36.97;;
41685;SDS011;27370;42.764;23.432;2023-11-21T00:51:21;59.50;;;40.90;;
41685;SDS011;27370;42.764;23.432;2023-11-21T00:53:47;49.40;;;32.75;;
41685;SDS011;27370;42.764;23.432;2023-11-21T00:56:13;49.83;;;31.67;;
41685;SDS011;27370;42.764;23.432;2023-11-21T00:58:41;42.10;;;27.10;;
41685;SDS011;27370;42.764;23.432;2023-11-21T01:01:12;42.50;;;27.67;;
41685;SDS011;27370;42.764;23.432;2023-11-21T01:03:37;42.78;;;26.13;;
41685;SDS011;27370;42.764;23.432;2023-11-21T01:06:03;47.60;;;28.50;;
41685;SDS011;27370;42.764;23.432;2023-11-21T01:08:32;47.10;;;27.08;;
41685;SDS011;27370;42.764;23.432;2023-11-21T01:10:58;44.15;;;28.23;;
41685;SDS011;27370;42.764;23.432;2023-11-21T01:13:23;44.55;;;27.70;;
41685;SDS011;27370;42.764;23.432;2023-11-21T01:15:54;48.30;;;27.80;;
41685;SDS011;27370;42.764;23.432;2023-11-21T01:18:21;44.47;;;26.15;;
41685;SDS011;27370;42.764;23.432;2023-11-21T01:20:46;41.83;;;25.63;;
41685;SDS011;27370;42.764;23.432;2023-11-21T01:23:15;39.97;;;23.83;;
41685;SDS011;27370;42.764;23.432;2023-11-21T01:25:41;39.38;;;22.05;;
41685;SDS011;27370;42.764;23.432;2023-11-21T01:28:08;38.13;;;21.55;;
41685;SDS011;27370;42.764;23.432;2023-11-21T01:30:34;38.78;;;22.30;;
41685;SDS011;27370;42.764;23.432;2023-11-21T01:33:00;40.22;;;23.98;;
41685;SDS011;27370;42.764;23.432;2023-11-21T01:35:26;41.60;;;22.52;;
41685;SDS011;27370;42.764;23.432;2023-11-21T01:37:52;44.75;;;23.98;;
41685;SDS011;27370;42.764;23.432;2023-11-21T01:40:17;47.65;;;23.55;;
41685;SDS011;27370;42.764;23.432;2023-11-21T01:42:44;48.67;;;24.38;;
41685;SDS011;27370;42.764;23.432;2023-11-21T01:45:10;40.75;;;24.40;;
41685;SDS011;27370;42.764;23.432;2023-11-21T01:47:38;45.58;;;24.52;;
41685;SDS011;27370;42.764;23.432;2023-11-21T01:50:07;47.90;;;24.77;;
41685;SDS011;27370;42.764;23.432;2023-11-21T01:52:36;41.65;;;24.80;;
41685;SDS011;27370;42.764;23.432;2023-11-21T01:55:02;45.90;;;25.13;;
41685;SDS011;27370;42.764;23.432;2023-11-21T01:57:29;44.03;;;27.70;;
41685;SDS011;27370;42.764;23.432;2023-11-21T01:59:55;44.15;;;25.20;;
41685;SDS011;27370;42.764;23.432;2023-11-21T02:02:24;39.55;;;24.33;;
41685;SDS011;27370;42.764;23.432;2023-11-21T02:04:50;37.65;;;22.25;;
41685;SDS011;27370;42.764;23.432;2023-11-21T02:07:15;47.20;;;26.58;;
41685;SDS011;27370;42.764;23.432;2023-11-21T02:09:41;37.13;;;22.90;;
41685;SDS011;27370;42.764;23.432;2023-11-21T02:12:08;38.20;;;21.85;;
41685;SDS011;27370;42.764;23.432;2023-11-21T02:17:03;35.40;;;20.52;;
41685;SDS011;27370;42.764;23.432;2023-11-21T02:19:30;33.08;;;20.38;;
41685;SDS011;27370;42.764;23.432;2023-11-21T02:21:57;44.42;;;23.27;;
41685;SDS011;27370;42.764;23.432;2023-11-21T02:24:26;37.05;;;22.88;;
41685;SDS011;27370;42.764;23.432;2023-11-21T02:26:52;41.70;;;23.13;;
41685;SDS011;27370;42.764;23.432;2023-11-21T02:29:18;41.22;;;23.80;;
41685;SDS011;27370;42.764;23.432;2023-11-21T02:31:47;207.32;;;61.00;;
41685;SDS011;27370;42.764;23.432;2023-11-21T02:34:15;131.68;;;47.20;;
41685;SDS011;27370;42.764;23.432;2023-11-21T02:36:42;119.18;;;41.78;;
41685;SDS011;27370;42.764;23.432;2023-11-21T02:39:11;94.88;;;36.15;;
41685;SDS011;27370;42.764;23.432;2023-11-21T02:41:39;113.75;;;43.22;;
41685;SDS011;27370;42.764;23.432;2023-11-21T02:44:05;108.25;;;39.35;;
41685;SDS011;27370;42.764;23.432;2023-11-21T02:46:34;75.18;;;33.35;;
41685;SDS011;27370;42.764;23.432;2023-11-21T02:49:01;80.72;;;36.03;;
41685;SDS011;27370;42.764;23.432;2023-11-21T02:51:31;82.05;;;32.10;;
41685;SDS011;27370;42.764;23.432;2023-11-21T02:53:58;78.63;;;30.23;;
41685;SDS011;27370;42.764;23.432;2023-11-21T02:56:24;143.30;;;40.05;;
41685;SDS011;27370;42.764;23.432;2023-11-21T02:58:51;531.75;;;92.03;;
41685;SDS011;27370;42.764;23.432;2023-11-21T03:01:17;213.55;;;55.88;;
41685;SDS011;27370;42.764;23.432;2023-11-21T03:03:43;126.40;;;43.80;;
41685;SDS011;27370;42.764;23.432;2023-11-21T03:06:09;157.23;;;52.13;;
41685;SDS011;27370;42.764;23.432;2023-11-21T03:08:34;142.55;;;50.58;;
41685;SDS011;27370;42.764;23.432;2023-11-21T03:11:01;173.55;;;48.38;;
41685;SDS011;27370;42.764;23.432;2023-11-21T03:13:29;177.45;;;46.90;;
41685;SDS011;27370;42.764;23.432;2023-11-21T03:15:57;142.00;;;42.92;;
41685;SDS011;27370;42.764;23.432;2023-11-21T03:18:22;142.93;;;42.22;;
41685;SDS011;27370;42.764;23.432;2023-11-21T03:20:48;98.03;;;40.47;;
41685;SDS011;27370;42.764;23.432;2023-11-21T03:23:13;130.02;;;44.40;;
41685;SDS011;27370;42.764;23.432;2023-11-21T03:25:39;132.57;;;43.13;;
41685;SDS011;27370;42.764;23.432;2023-11-21T03:28:04;118.57;;;44.78;;
41685;SDS011;27370;42.764;23.432;2023-11-21T03:30:30;128.77;;;45.42;;
41685;SDS011;27370;42.764;23.432;2023-11-21T03:32:57;112.78;;;44.17;;
41685;SDS011;27370;42.764;23.432;2023-11-21T03:35:22;81.85;;;39.92;;
41685;SDS011;27370;42.764;23.432;2023-11-21T03:37:48;71.40;;;35.22;;
41685;SDS011;27370;42.764;23.432;2023-11-21T03:40:13;76.32;;;33.63;;
41685;SDS011;27370;42.764;23.432;2023-11-21T03:42:39;63.05;;;31.17;;
41685;SDS011;27370;42.764;23.432;2023-11-21T03:45:05;52.92;;;30.02;;
41685;SDS011;27370;42.764;23.432;2023-11-21T03:47:31;55.17;;;31.80;;
41685;SDS011;27370;42.764;23.432;2023-11-21T03:49:57;56.63;;;31.40;;
41685;SDS011;27370;42.764;23.432;2023-11-21T03:52:23;50.72;;;30.95;;
41685;SDS011;27370;42.764;23.432;2023-11-21T03:54:49;55.25;;;29.05;;
41685;SDS011;27370;42.764;23.432;2023-11-21T03:57:15;53.30;;;28.75;;
41685;SDS011;27370;42.764;23.432;2023-11-21T03:59:42;49.22;;;27.42;;
41685;SDS011;27370;42.764;23.432;2023-11-21T04:02:08;67.78;;;30.70;;
41685;SDS011;27370;42.764;23.432;2023-11-21T04:04:34;97.15;;;37.80;;
41685;SDS011;27370;42.764;23.432;2023-11-21T04:07:00;114.13;;;42.88;;
41685;SDS011;27370;42.764;23.432;2023-11-21T04:09:26;85.80;;;37.78;;
41685;SDS011;27370;42.764;23.432;2023-11-21T04:11:52;78.60;;;36.72;;
41685;SDS011;27370;42.764;23.432;2023-11-21T04:14:18;86.55;;;36.38;;
41685;SDS011;27370;42.764;23.432;2023-11-21T04:16:44;74.53;;;34.20;;
41685;SDS011;27370;42.764;23.432;2023-11-21T04:19:10;70.45;;;34.58;;
41685;SDS011;27370;42.764;23.432;2023-11-21T04:21:38;62.00;;;32.65;;
41685;SDS011;27370;42.764;23.432;2023-11-21T04:24:04;68.15;;;33.55;;
41685;SDS011;27370;42.764;23.432;2023-11-21T04:26:30;78.93;;;37.42;;
41685;SDS011;27370;42.764;23.432;2023-11-21T04:28:55;255.40;;;122.85;;
41685;SDS011;27370;42.764;23.432;2023-11-21T04:31:21;214.40;;;72.88;;
41685;SDS011;27370;42.764;23.432;2023-11-21T04:33:46;255.65;;;68.57;;
41685;SDS011;27370;42.764;23.432;2023-11-21T04:36:12;210.73;;;69.82;;
41685;SDS011;27370;42.764;23.432;2023-11-21T04:38:38;210.82;;;47.22;;
41685;SDS011;27370;42.764;23.432;2023-11-21T04:41:04;256.15;;;44.78;;
41685;SDS011;27370;42.764;23.432;2023-11-21T04:43:29;218.05;;;41.05;;
41685;SDS011;27370;42.764;23.432;2023-11-21T04:45:55;287.83;;;50.15;;
41685;SDS011;27370;42.764;23.432;2023-11-21T04:48:20;358.80;;;56.72;;
41685;SDS011;27370;42.764;23.432;2023-11-21T04:50:46;356.17;;;51.75;;
41685;SDS011;27370;42.764;23.432;2023-11-21T04:53:11;432.05;;;58.00;;
41685;SDS011;27370;42.764;23.432;2023-11-21T04:55:40;494.17;;;101.22;;
41685;SDS011;27370;42.764;23.432;2023-11-21T04:58:06;481.45;;;84.15;;
41685;SDS011;27370;42.764;23.432;2023-11-21T05:00:31;338.15;;;71.97;;
41685;SDS011;27370;42.764;23.432;2023-11-21T05:02:57;300.27;;;65.15;;
41685;SDS011;27370;42.764;23.432;2023-11-21T05:05:22;259.63;;;50.47;;
41685;SDS011;27370;42.764;23.432;2023-11-21T05:07:49;371.67;;;60.72;;
41685;SDS011;27370;42.764;23.432;2023-11-21T05:10:14;188.10;;;45.72;;
41685;SDS011;27370;42.764;23.432;2023-11-21T05:12:40;256.77;;;51.47;;
41685;SDS011;27370;42.764;23.432;2023-11-21T05:15:07;274.48;;;48.40;;
41685;SDS011;27370;42.764;23.432;2023-11-21T05:17:36;355.95;;;57.30;;
41685;SDS011;27370;42.764;23.432;2023-11-21T05:20:04;467.23;;;67.50;;
41685;SDS011;27370;42.764;23.432;2023-11-21T05:24:59;339.08;;;54.92;;
41685;SDS011;27370;42.764;23.432;2023-11-21T05:27:25;213.43;;;48.30;;
41685;SDS011;27370;42.764;23.432;2023-11-21T05:29:50;266.38;;;56.60;;
41685;SDS011;27370;42.764;23.432;2023-11-21T05:32:16;411.83;;;77.35;;
41685;SDS011;27370;42.764;23.432;2023-11-21T05:34:42;405.35;;;79.55;;
41685;SDS011;27370;42.764;23.432;2023-11-21T05:37:08;392.83;;;75.57;;
41685;SDS011;27370;42.764;23.432;2023-11-21T05:39:33;169.10;;;56.70;;
41685;SDS011;27370;42.764;23.432;2023-11-21T05:41:59;162.82;;;63.92;;
41685;SDS011;27370;42.764;23.432;2023-11-21T05:44:25;165.57;;;62.50;;
41685;SDS011;27370;42.764;23.432;2023-11-21T05:46:51;107.47;;;51.63;;
41685;SDS011;27370;42.764;23.432;2023-11-21T05:49:16;97.93;;;54.65;;
41685;SDS011;27370;42.764;23.432;2023-11-21T05:51:42;86.22;;;48.17;;
41685;SDS011;27370;42.764;23.432;2023-11-21T05:54:07;75.15;;;47.30;;
41685;SDS011;27370;42.764;23.432;2023-11-21T05:56:33;81.47;;;46.83;;
41685;SDS011;27370;42.764;23.432;2023-11-21T05:58:59;77.82;;;45.70;;
41685;SDS011;27370;42.764;23.432;2023-11-21T06:01:25;80.03;;;46.70;;
41685;SDS011;27370;42.764;23.432;2023-11-21T06:03:53;74.85;;;45.35;;
41685;SDS011;27370;42.764;23.432;2023-11-21T06:06:20;65.55;;;41.38;;
41685;SDS011;27370;42.764;23.432;2023-11-21T06:08:48;59.35;;;36.63;;
41685;SDS011;27370;42.764;23.432;2023-11-21T06:11:14;57.90;;;27.88;;
41685;SDS011;27370;42.764;23.432;2023-11-21T06:13:41;73.57;;;29.52;;
41685;SDS011;27370;42.764;23.432;2023-11-21T06:16:07;87.85;;;36.60;;
41685;SDS011;27370;42.764;23.432;2023-11-21T06:18:33;53.47;;;28.92;;
41685;SDS011;27370;42.764;23.432;2023-11-21T06:20:58;45.28;;;27.50;;
41685;SDS011;27370;42.764;23.432;2023-11-21T06:23:26;41.10;;;25.33;;
41685;SDS011;27370;42.764;23.432;2023-11-21T06:25:52;39.35;;;24.08;;
41685;SDS011;27370;42.764;23.432;2023-11-21T06:28:18;36.90;;;23.80;;
41685;SDS011;27370;42.764;23.432;2023-11-21T06:30:43;40.13;;;24.40;;
41685;SDS011;27370;42.764;23.432;2023-11-21T06:33:10;39.63;;;22.75;;
41685;SDS011;27370;42.764;23.432;2023-11-21T06:35:36;37.17;;;23.65;;
41685;SDS011;27370;42.764;23.432;2023-11-21T06:38:02;36.08;;;23.00;;
41685;SDS011;27370;42.764;23.432;2023-11-21T06:40:28;37.10;;;22.73;;
41685;SDS011;27370;42.764;23.432;2023-11-21T06:42:53;38.08;;;22.90;;
41685;SDS011;27370;42.764;23.432;2023-11-21T06:45:19;35.03;;;22.33;;
41685;SDS011;27370;42.764;23.432;2023-11-21T06:47:48;35.35;;;22.02;;
41685;SDS011;27370;42.764;23.432;2023-11-21T06:50:14;42.45;;;27.23;;
41685;SDS011;27370;42.764;23.432;2023-11-21T06:52:39;70.40;;;41.72;;
41685;SDS011;27370;42.764;23.432;2023-11-21T06:55:05;101.05;;;43.03;;
41685;SDS011;27370;42.764;23.432;2023-11-21T06:57:33;84.10;;;40.50;;
41685;SDS011;27370;42.764;23.432;2023-11-21T06:59:58;71.28;;;38.83;;
41685;SDS011;27370;42.764;23.432;2023-11-21T07:02:25;93.10;;;48.40;;
41685;SDS011;27370;42.764;23.432;2023-11-21T07:04:50;139.85;;;53.10;;
41685;SDS011;27370;42.764;23.432;2023-11-21T07:07:16;107.72;;;51.00;;
41685;SDS011;27370;42.764;23.432;2023-11-21T07:09:42;137.82;;;52.97;;
41685;SDS011;27370;42.764;23.432;2023-11-21T07:12:07;104.93;;;47.45;;
41685;SDS011;27370;42.764;23.432;2023-11-21T07:14:34;184.07;;;51.38;;
41685;SDS011;27370;42.764;23.432;2023-11-21T07:16:59;103.63;;;41.25;;
41685;SDS011;27370;42.764;23.432;2023-11-21T07:19:25;62.85;;;31.65;;
41685;SDS011;27370;42.764;23.432;2023-11-21T07:21:51;61.88;;;30.20;;
41685;SDS011;27370;42.764;23.432;2023-11-21T07:24:17;71.72;;;30.10;;
41685;SDS011;27370;42.764;23.432;2023-11-21T07:26:43;104.65;;;35.17;;
41685;SDS011;27370;42.764;23.432;2023-11-21T07:29:09;66.15;;;32.58;;
41685;SDS011;27370;42.764;23.432;2023-11-21T07:31:36;52.25;;;32.13;;
41685;SDS011;27370;42.764;23.432;2023-11-21T07:34:03;51.25;;;33.05;;
41685;SDS011;27370;42.764;23.432;2023-11-21T07:36:29;46.17;;;31.45;;
41685;SDS011;27370;42.764;23.432;2023-11-21T07:38:54;43.28;;;28.52;;
41685;SDS011;27370;42.764;23.432;2023-11-21T07:41:20;44.40;;;31.77;;
41685;SDS011;27370;42.764;23.432;2023-11-21T07:43:46;50.60;;;34.38;;
41685;SDS011;27370;42.764;23.432;2023-11-21T07:46:12;41.60;;;27.02;;
41685;SDS011;27370;42.764;23.432;2023-11-21T07:48:38;38.60;;;25.35;;
41685;SDS011;27370;42.764;23.432;2023-11-21T07:51:05;38.95;;;26.17;;
41685;SDS011;27370;42.764;23.432;2023-11-21T07:53:32;42.92;;;27.90;;
41685;SDS011;27370;42.764;23.432;2023-11-21T07:55:58;36.30;;;26.15;;
41685;SDS011;27370;42.764;23.432;2023-11-21T07:58:28;37.95;;;26.33;;
41685;SDS011;27370;42.764;23.432;2023-11-21T08:00:53;39.20;;;29.38;;
41685;SDS011;27370;42.764;23.432;2023-11-21T08:03:19;38.90;;;27.15;;
41685;SDS011;27370;42.764;23.432;2023-11-21T08:05:44;35.70;;;26.80;;
41685;SDS011;27370;42.764;23.432;2023-11-21T08:08:10;43.58;;;26.52;;
41685;SDS011;27370;42.764;23.432;2023-11-21T08:10:36;34.83;;;23.60;;
41685;SDS011;27370;42.764;23.432;2023-11-21T08:13:02;35.90;;;25.15;;
41685;SDS011;27370;42.764;23.432;2023-11-21T08:15:29;40.35;;;29.08;;
41685;SDS011;27370;42.764;23.432;2023-11-21T08:17:57;42.63;;;30.25;;
41685;SDS011;27370;42.764;23.432;2023-11-21T08:20:24;44.85;;;30.98;;
41685;SDS011;27370;42.764;23.432;2023-11-21T08:22:50;44.25;;;30.67;;
41685;SDS011;27370;42.764;23.432;2023-11-21T08:25:17;44.95;;;32.22;;
41685;SDS011;27370;42.764;23.432;2023-11-21T08:27:45;48.95;;;33.15;;
41685;SDS011;27370;42.764;23.432;2023-11-21T08:30:12;43.38;;;31.85;;
41685;SDS011;27370;42.764;23.432;2023-11-21T08:32:39;44.80;;;32.60;;
41685;SDS011;27370;42.764;23.432;2023-11-21T08:35:07;46.20;;;33.40;;
41685;SDS011;27370;42.764;23.432;2023-11-21T08:37:33;46.88;;;33.13;;
41685;SDS011;27370;42.764;23.432;2023-11-21T08:40:02;48.95;;;32.47;;
41685;SDS011;27370;42.764;23.432;2023-11-21T08:42:41;46.25;;;32.08;;
41685;SDS011;27370;42.764;23.432;2023-11-21T08:45:08;43.15;;;27.95;;
41685;SDS011;27370;42.764;23.432;2023-11-21T08:47:34;39.33;;;25.33;;
41685;SDS011;27370;42.764;23.432;2023-11-21T08:50:01;36.85;;;24.35;;
41685;SDS011;27370;42.764;23.432;2023-11-21T08:52:27;34.25;;;22.27;;
41685;SDS011;27370;42.764;23.432;2023-11-21T08:54:53;33.63;;;21.67;;
41685;SDS011;27370;42.764;23.432;2023-11-21T08:57:24;34.20;;;20.13;;
41685;SDS011;27370;42.764;23.432;2023-11-21T08:59:50;32.05;;;18.85;;
41685;SDS011;27370;42.764;23.432;2023-11-21T09:02:22;29.60;;;19.27;;
41685;SDS011;27370;42.764;23.432;2023-11-21T09:04:48;27.20;;;18.55;;
41685;SDS011;27370;42.764;23.432;2023-11-21T09:07:16;24.45;;;17.33;;
41685;SDS011;27370;42.764;23.432;2023-11-21T09:09:41;29.77;;;19.05;;
41685;SDS011;27370;42.764;23.432;2023-11-21T09:12:07;26.35;;;16.80;;
41685;SDS011;27370;42.764;23.432;2023-11-21T09:14:32;24.95;;;15.65;;
41685;SDS011;27370;42.764;23.432;2023-11-21T09:16:59;26.83;;;17.80;;
41685;SDS011;27370;42.764;23.432;2023-11-21T09:19:24;22.83;;;14.43;;
41685;SDS011;27370;42.764;23.432;2023-11-21T09:21:50;24.55;;;15.52;;
41685;SDS011;27370;42.764;23.432;2023-11-21T09:24:16;22.05;;;15.48;;
41685;SDS011;27370;42.764;23.432;2023-11-21T09:26:41;23.95;;;16.02;;
41685;SDS011;27370;42.764;23.432;2023-11-21T09:29:07;24.20;;;17.08;;
41685;SDS011;27370;42.764;23.432;2023-11-21T09:31:33;34.03;;;19.27;;
41685;SDS011;27370;42.764;23.432;2023-11-21T09:33:59;27.40;;;17.73;;
41685;SDS011;27370;42.764;23.432;2023-11-21T09:36:24;25.30;;;17.15;;
41685;SDS011;27370;42.764;23.432;2023-11-21T09:38:53;26.48;;;17.60;;
41685;SDS011;27370;42.764;23.432;2023-11-21T09:41:34;27.42;;;17.05;;
41685;SDS011;27370;42.764;23.432;2023-11-21T09:44:09;30.93;;;18.10;;
41685;SDS011;27370;42.764;23.432;2023-11-21T09:46:41;26.45;;;17.95;;
41685;SDS011;27370;42.764;23.432;2023-11-21T09:49:10;28.85;;;19.40;;
41685;SDS011;27370;42.764;23.432;2023-11-21T09:51:42;28.77;;;19.10;;
41685;SDS011;27370;42.764;23.432;2023-11-21T09:54:09;24.17;;;16.33;;
41685;SDS011;27370;42.764;23.432;2023-11-21T09:56:39;25.83;;;16.15;;
41685;SDS011;27370;42.764;23.432;2023-11-21T09:59:05;31.00;;;19.27;;
41685;SDS011;27370;42.764;23.432;2023-11-21T10:01:35;29.58;;;17.17;;
41685;SDS011;27370;42.764;23.432;2023-11-21T10:04:01;28.08;;;18.30;;
41685;SDS011;27370;42.764;23.432;2023-11-21T10:06:27;26.75;;;18.02;;
41685;SDS011;27370;42.764;23.432;2023-11-21T10:08:55;28.35;;;16.52;;
41685;SDS011;27370;42.764;23.432;2023-11-21T10:11:27;25.40;;;16.42;;
41685;SDS011;27370;42.764;23.432;2023-11-21T10:13:55;23.05;;;14.73;;
41685;SDS011;27370;42.764;23.432;2023-11-21T10:16:25;26.45;;;17.85;;
41685;SDS011;27370;42.764;23.432;2023-11-21T10:18:52;26.52;;;17.30;;
41685;SDS011;27370;42.764;23.432;2023-11-21T10:21:21;24.45;;;16.90;;
41685;SDS011;27370;42.764;23.432;2023-11-21T10:23:47;26.63;;;17.27;;
41685;SDS011;27370;42.764;23.432;2023-11-21T10:26:13;26.88;;;17.30;;
41685;SDS011;27370;42.764;23.432;2023-11-21T10:29:02;22.33;;;15.65;;
41685;SDS011;27370;42.764;23.432;2023-11-21T10:31:31;26.42;;;17.17;;
41685;SDS011;27370;42.764;23.432;2023-11-21T10:34:13;19.73;;;13.10;;
41685;SDS011;27370;42.764;23.432;2023-11-21T10:36:43;19.75;;;11.38;;
41685;SDS011;27370;42.764;23.432;2023-11-21T10:39:19;19.13;;;12.75;;
41685;SDS011;27370;42.764;23.432;2023-11-21T10:41:48;20.10;;;13.40;;
41685;SDS011;27370;42.764;23.432;2023-11-21T10:44:16;20.00;;;13.43;;
41685;SDS011;27370;42.764;23.432;2023-11-21T10:46:48;21.98;;;13.23;;
41685;SDS011;27370;42.764;23.432;2023-11-21T10:49:21;19.50;;;13.57;;
41685;SDS011;27370;42.764;23.432;2023-11-21T10:51:50;21.30;;;13.32;;
41685;SDS011;27370;42.764;23.432;2023-11-21T10:54:19;22.00;;;12.40;;
41685;SDS011;27370;42.764;23.432;2023-11-21T10:56:45;27.50;;;12.35;;
41685;SDS011;27370;42.764;23.432;2023-11-21T10:59:16;17.42;;;9.82;;
41685;SDS011;27370;42.764;23.432;2023-11-21T11:01:43;16.77;;;9.10;;
41685;SDS011;27370;42.764;23.432;2023-11-21T11:04:10;17.52;;;10.13;;
41685;SDS011;27370;42.764;23.432;2023-11-21T11:06:44;17.83;;;10.32;;
41685;SDS011;27370;42.764;23.432;2023-11-21T11:09:30;19.65;;;10.38;;
41685;SDS011;27370;42.764;23.432;2023-11-21T11:11:59;18.70;;;12.52;;
41685;SDS011;27370;42.764;23.432;2023-11-21T11:14:26;24.88;;;13.88;;
41685;SDS011;27370;42.764;23.432;2023-11-21T11:16:53;23.17;;;14.48;;
41685;SDS011;27370;42.764;23.432;2023-11-21T11:19:20;21.25;;;14.32;;
41685;SDS011;27370;42.764;23.432;2023-11-21T11:27:53;25.25;;;15.15;;
41685;SDS011;27370;42.764;23.432;2023-11-21T11:30:32;23.02;;;14.95;;
41685;SDS011;27370;42.764;23.432;2023-11-21T11:38:05;22.88;;;14.15;;
41685;SDS011;27370;42.764;23.432;2023-11-21T11:40:39;33.72;;;19.90;;
41685;SDS011;27370;42.764;23.432;2023-11-21T11:43:07;35.30;;;20.38;;
41685;SDS011;27370;42.764;23.432;2023-11-21T11:45:33;34.80;;;20.35;;
41685;SDS011;27370;42.764;23.432;2023-11-21T11:48:01;29.42;;;17.70;;
41685;SDS011;27370;42.764;23.432;2023-11-21T11:50:28;19.83;;;12.38;;
41685;SDS011;27370;42.764;23.432;2023-11-21T11:52:55;21.45;;;13.02;;
41685;SDS011;27370;42.764;23.432;2023-11-21T11:55:36;19.85;;;12.75;;
41685;SDS011;27370;42.764;23.432;2023-11-21T11:58:04;23.40;;;13.55;;
41685;SDS011;27370;42.764;23.432;2023-11-21T12:02:58;20.40;;;14.25;;
41685;SDS011;27370;42.764;23.432;2023-11-21T12:05:28;23.35;;;14.52;;
41685;SDS011;27370;42.764;23.432;2023-11-21T12:07:59;23.88;;;14.48;;
41685;SDS011;27370;42.764;23.432;2023-11-21T12:10:27;22.23;;;15.88;;
41685;SDS011;27370;42.764;23.432;2023-11-21T12:12:55;23.52;;;14.82;;
41685;SDS011;27370;42.764;23.432;2023-11-21T12:15:23;24.65;;;16.15;;
41685;SDS011;27370;42.764;23.432;2023-11-21T12:17:50;28.00;;;17.65;;
41685;SDS011;27370;42.764;23.432;2023-11-21T12:20:20;23.98;;;15.10;;
41685;SDS011;27370;42.764;23.432;2023-11-21T12:22:51;20.42;;;13.75;;
41685;SDS011;27370;42.764;23.432;2023-11-21T12:25:25;23.38;;;14.63;;
41685;SDS011;27370;42.764;23.432;2023-11-21T12:27:54;24.00;;;15.60;;
41685;SDS011;27370;42.764;23.432;2023-11-21T12:30:23;25.25;;;15.52;;
41685;SDS011;27370;42.764;23.432;2023-11-21T12:32:50;25.70;;;17.08;;
41685;SDS011;27370;42.764;23.432;2023-11-21T12:35:18;27.83;;;18.70;;
41685;SDS011;27370;42.764;23.432;2023-11-21T12:37:45;28.25;;;18.92;;
41685;SDS011;27370;42.764;23.432;2023-11-21T12:40:12;28.08;;;19.50;;
41685;SDS011;27370;42.764;23.432;2023-11-21T12:42:53;29.73;;;22.40;;
41685;SDS011;27370;42.764;23.432;2023-11-21T12:45:27;32.40;;;22.63;;
41685;SDS011;27370;42.764;23.432;2023-11-21T12:48:00;34.38;;;23.40;;
41685;SDS011;27370;42.764;23.432;2023-11-21T12:50:32;38.90;;;25.47;;
41685;SDS011;27370;42.764;23.432;2023-11-21T12:53:06;36.45;;;24.67;;
41685;SDS011;27370;42.764;23.432;2023-11-21T12:55:34;38.95;;;24.90;;
41685;SDS011;27370;42.764;23.432;2023-11-21T12:58:04;38.85;;;26.15;;
41685;SDS011;27370;42.764;23.432;2023-11-21T13:03:13;42.75;;;28.33;;
41685;SDS011;27370;42.764;23.432;2023-11-21T13:05:48;42.70;;;29.55;;
41685;SDS011;27370;42.764;23.432;2023-11-21T13:08:19;42.03;;;29.23;;
41685;SDS011;27370;42.764;23.432;2023-11-21T13:10:51;40.92;;;29.00;;
41685;SDS011;27370;42.764;23.432;2023-11-21T13:13:19;40.47;;;30.20;;
41685;SDS011;27370;42.764;23.432;2023-11-21T13:15:51;40.20;;;30.58;;
41685;SDS011;27370;42.764;23.432;2023-11-21T13:18:19;40.90;;;27.85;;
41685;SDS011;27370;42.764;23.432;2023-11-21T13:20:47;39.85;;;29.85;;
41685;SDS011;27370;42.764;23.432;2023-11-21T13:23:13;39.38;;;29.27;;
41685;SDS011;27370;42.764;23.432;2023-11-21T13:25:41;38.15;;;27.85;;
41685;SDS011;27370;42.764;23.432;2023-11-21T13:28:08;39.08;;;27.85;;
41685;SDS011;27370;42.764;23.432;2023-11-21T13:30:34;37.10;;;27.08;;
41685;SDS011;27370;42.764;23.432;2023-11-21T13:33:02;32.70;;;22.17;;
41685;SDS011;27370;42.764;23.432;2023-11-21T13:35:36;35.47;;;25.23;;
41685;SDS011;27370;42.764;23.432;2023-11-21T13:40:34;72.90;;;61.65;;
41685;SDS011;27370;42.764;23.432;2023-11-21T13:43:15;40.15;;;29.35;;
41685;SDS011;27370;42.764;23.432;2023-11-21T13:45:44;41.35;;;30.27;;
41685;SDS011;27370;42.764;23.432;2023-11-21T13:48:11;36.30;;;24.75;;
41685;SDS011;27370;42.764;23.432;2023-11-21T13:50:47;35.60;;;24.33;;
41685;SDS011;27370;42.764;23.432;2023-11-21T13:53:37;31.98;;;22.15;;
41685;SDS011;27370;42.764;23.432;2023-11-21T13:56:04;35.92;;;24.65;;
41685;SDS011;27370;42.764;23.432;2023-11-21T13:58:30;40.53;;;26.65;;
41685;SDS011;27370;42.764;23.432;2023-11-21T14:01:11;37.97;;;23.55;;
41685;SDS011;27370;42.764;23.432;2023-11-21T14:03:58;39.22;;;27.33;;
41685;SDS011;27370;42.764;23.432;2023-11-21T14:06:34;42.17;;;27.55;;
41685;SDS011;27370;42.764;23.432;2023-11-21T14:09:07;39.10;;;26.38;;
41685;SDS011;27370;42.764;23.432;2023-11-21T14:11:33;40.95;;;25.92;;
41685;SDS011;27370;42.764;23.432;2023-11-21T14:13:59;39.28;;;25.40;;
41685;SDS011;27370;42.764;23.432;2023-11-21T14:16:25;36.75;;;25.45;;
41685;SDS011;27370;42.764;23.432;2023-11-21T14:18:51;38.25;;;26.50;;
41685;SDS011;27370;42.764;23.432;2023-11-21T14:21:34;37.78;;;27.17;;
41685;SDS011;27370;42.764;23.432;2023-11-21T14:24:00;39.00;;;27.35;;
41685;SDS011;27370;42.764;23.432;2023-11-21T14:26:28;41.03;;;28.30;;
41685;SDS011;27370;42.764;23.432;2023-11-21T14:28:56;47.83;;;30.15;;
41685;SDS011;27370;42.764;23.432;2023-11-21T14:31:22;43.05;;;29.63;;